Time;durP1;ratioP1;P1;durP2;ratioP2;P2;SDS_P1;SDS_P2;PMS_P1;PMS_P2;Temp;Humidity;BMP_temperature;BMP_pressure;BME280_temperature;BME280_humidity;BME280_pressure;Samples;Min_cycle;Max_cycle;Signal;HPM_P1;HPM_P2
2021/04/12 00:00:25;;;;;;;0.60;0.50;;;11.60;99.90;;;;;;5081459;28;20452;-52
2021/04/12 00:02:56;;;;;;;0.60;0.40;;;11.40;99.90;;;;;;5093155;28;20816;-51
2021/04/12 00:05:34;;;;;;;1.10;0.50;;;11.60;99.90;;;;;;5093371;28;20449;-51
2021/04/12 00:08:10;;;;;;;0.50;0.37;;;11.40;99.90;;;;;;5091121;28;20972;-51
2021/04/12 00:10:42;;;;;;;0.60;0.40;;;11.50;99.90;;;;;;5073814;28;20454;-51
2021/04/12 00:13:15;;;;;;;0.50;0.40;;;11.50;99.90;;;;;;5073017;28;20908;-51
2021/04/12 00:15:46;;;;;;;0.50;0.40;;;11.70;99.90;;;;;;5072983;28;20450;-51
2021/04/12 00:18:20;;;;;;;0.50;0.40;;;11.50;99.90;;;;;;5073802;28;20478;-52
2021/04/12 00:20:52;;;;;;;0.50;0.40;;;11.60;99.90;;;;;;5091451;28;20505;-52
2021/04/12 00:23:27;;;;;;;0.60;0.40;;;11.60;99.90;;;;;;5090199;28;20469;-51
2021/04/12 00:26:02;;;;;;;0.60;0.40;;;11.70;99.90;;;;;;5072867;28;20499;-51
2021/04/12 00:28:33;;;;;;;0.70;0.40;;;11.80;99.90;;;;;;5085570;28;20446;-51
2021/04/12 00:31:04;;;;;;;0.50;0.50;;;11.70;99.90;;;;;;5085578;28;20869;-52
2021/04/12 00:33:36;;;;;;;1.23;0.50;;;11.60;99.90;;;;;;5092868;28;21057;-51
2021/04/12 00:36:08;;;;;;;0.60;0.40;;;11.40;99.90;;;;;;5093467;28;21122;-51
2021/04/12 00:38:43;;;;;;;0.80;0.50;;;11.30;99.90;;;;;;5088302;28;20451;-51
2021/04/12 00:41:31;;;;;;;0.60;0.50;;;11.40;99.90;;;;;;5086926;28;20524;-52
2021/04/12 00:44:10;;;;;;;0.60;0.50;;;11.00;99.90;;;;;;5092546;28;20470;-52
2021/04/12 00:46:50;;;;;;;0.60;0.50;;;10.90;99.90;;;;;;5090979;28;20456;-52
2021/04/12 00:49:35;;;;;;;0.80;0.47;;;11.00;99.90;;;;;;5073729;28;20458;-52
2021/04/12 00:52:27;;;;;;;0.60;0.50;;;11.30;99.90;;;;;;5072154;28;20484;-52
2021/04/12 00:55:15;;;;;;;0.60;0.60;;;10.90;99.90;;;;;;5072333;28;20478;-52
2021/04/12 00:57:51;;;;;;;0.90;0.50;;;10.70;99.90;;;;;;5084574;28;20462;-52
2021/04/12 01:00:24;;;;;;;0.70;0.60;;;10.70;99.90;;;;;;5074197;28;20982;-52
2021/04/12 01:03:08;;;;;;;0.70;0.50;;;10.70;99.90;;;;;;5072065;28;20604;-51
2021/04/12 01:05:45;;;;;;;0.70;0.50;;;10.80;99.90;;;;;;5072135;28;20560;-51
2021/04/12 01:08:37;;;;;;;0.60;0.50;;;10.60;99.90;;;;;;5072066;28;20458;-52
2021/04/12 01:11:41;;;;;;;0.67;0.50;;;10.60;99.90;;;;;;5072467;28;20442;-51
2021/04/12 01:14:52;;;;;;;0.60;0.50;;;10.50;99.90;;;;;;5071979;28;20489;-52
2021/04/12 01:18:03;;;;;;;0.60;0.50;;;10.30;99.90;;;;;;5072461;28;20450;-51
2021/04/12 01:20:57;;;;;;;0.60;0.50;;;10.30;99.90;;;;;;5052878;28;20495;-51
2021/04/12 01:24:18;;;;;;;0.60;0.50;;;10.40;99.90;;;;;;5074650;28;20464;-51
2021/04/12 01:27:31;;;;;;;0.60;0.50;;;10.30;99.90;;;;;;5008617;28;20460;-51
2021/04/12 01:30:30;;;;;;;1.23;0.60;;;10.20;99.90;;;;;;5008157;28;20452;-50
2021/04/12 01:33:35;;;;;;;0.60;0.40;;;10.00;99.90;;;;;;5091911;28;20488;-51
2021/04/12 01:36:29;;;;;;;0.80;0.50;;;10.00;99.90;;;;;;5071521;28;20449;-51
2021/04/12 01:39:09;;;;;;;0.70;0.60;;;9.90;99.90;;;;;;5089902;28;20514;-51
2021/04/12 01:41:47;;;;;;;1.17;0.50;;;9.80;99.90;;;;;;5075718;28;20449;-51
2021/04/12 01:44:40;;;;;;;0.80;0.50;;;9.70;99.90;;;;;;5078303;28;20476;-51
2021/04/12 01:47:15;;;;;;;0.60;0.40;;;9.60;99.90;;;;;;5084422;28;20829;-51
2021/04/12 01:50:08;;;;;;;0.50;0.50;;;9.80;99.90;;;;;;5091670;28;20440;-51
2021/04/12 01:53:14;;;;;;;0.60;0.50;;;9.90;99.90;;;;;;5042345;28;20470;-51
2021/04/12 02:02:40;;;;;;;0.50;0.40;;;9.80;99.90;;;;;;5080534;28;20901;-51
2021/04/12 02:05:22;;;;;;;0.60;0.40;;;9.70;99.90;;;;;;5071962;28;20450;-51
2021/04/12 02:08:18;;;;;;;0.50;0.40;;;9.60;99.90;;;;;;5078053;28;20473;-51
2021/04/12 02:11:07;;;;;;;0.60;0.40;;;9.50;99.90;;;;;;5069061;28;20454;-51
2021/04/12 02:13:53;;;;;;;0.60;0.43;;;9.40;99.90;;;;;;5071315;28;20858;-51
2021/04/12 02:16:33;;;;;;;0.60;0.50;;;9.50;99.90;;;;;;5071216;28;20448;-51
2021/04/12 02:19:19;;;;;;;0.60;0.40;;;9.30;99.90;;;;;;5083405;28;20448;-51
2021/04/12 02:22:05;;;;;;;0.50;0.30;;;9.30;99.90;;;;;;5088063;28;21150;-51
2021/04/12 02:24:37;;;;;;;2.00;0.40;;;9.30;99.90;;;;;;5071909;28;20444;-51
2021/04/12 02:27:13;;;;;;;0.50;0.40;;;9.10;99.90;;;;;;5071478;28;20453;-51
2021/04/12 02:29:53;;;;;;;0.80;0.40;;;9.10;99.90;;;;;;5089810;28;20508;-51
2021/04/12 02:32:40;;;;;;;0.60;0.40;;;9.00;99.90;;;;;;5090009;28;20542;-51
2021/04/12 02:35:17;;;;;;;0.97;0.60;;;8.90;99.90;;;;;;5071177;28;20483;-50
2021/04/12 02:38:16;;;;;;;0.60;0.50;;;8.90;99.90;;;;;;5074877;28;20498;-50
2021/04/12 02:41:16;;;;;;;0.70;0.40;;;8.90;99.90;;;;;;5072185;28;20468;-51
2021/04/12 02:44:07;;;;;;;0.60;0.40;;;8.90;99.90;;;;;;5084698;28;20496;-51
2021/04/12 02:46:54;;;;;;;0.50;0.40;;;8.80;99.90;;;;;;5071995;28;20521;-50
2021/04/12 02:49:31;;;;;;;0.60;0.50;;;8.60;99.90;;;;;;5076138;28;20993;-50
2021/04/12 02:52:08;;;;;;;0.80;0.60;;;8.50;99.90;;;;;;5079616;28;20445;-51
2021/04/12 02:55:07;;;;;;;0.60;0.40;;;8.40;99.90;;;;;;5076144;28;20474;-51
2021/04/12 02:58:12;;;;;;;0.50;0.40;;;8.30;99.90;;;;;;5060070;28;20474;-52
2021/04/12 03:00:56;;;;;;;0.60;0.50;;;8.30;99.90;;;;;;5003405;28;20468;-51
2021/04/12 03:07:25;;;;;;;0.60;0.50;;;8.20;99.90;;;;;;5080600;28;20417;-51
2021/04/12 03:10:07;;;;;;;0.57;0.40;;;8.10;99.90;;;;;;5093666;28;21005;-51
2021/04/12 03:12:57;;;;;;;0.60;0.40;;;8.10;99.90;;;;;;5093040;28;20469;-51
2021/04/12 03:15:46;;;;;;;0.60;0.40;;;8.00;99.90;;;;;;5074808;28;20816;-51
2021/04/12 03:18:54;;;;;;;0.50;0.30;;;8.00;99.90;;;;;;5079732;28;20984;-51
2021/04/12 03:22:00;;;;;;;1.13;0.50;;;7.80;99.90;;;;;;5078491;28;20959;-51
2021/04/12 03:24:30;;;;;;;0.50;0.30;;;7.70;99.90;;;;;;5091524;28;20451;-50
2021/04/12 03:27:18;;;;;;;2.53;0.40;;;7.60;99.90;;;;;;5075913;28;20516;-50
2021/04/12 03:30:00;;;;;;;0.93;0.33;;;7.40;99.90;;;;;;5074161;28;20849;-50
2021/04/12 03:32:58;;;;;;;0.50;0.40;;;7.30;99.90;;;;;;5074393;28;20467;-51
2021/04/12 03:35:40;;;;;;;0.50;0.50;;;7.60;99.90;;;;;;5085742;28;20442;-50
2021/04/12 03:38:31;;;;;;;0.50;0.33;;;7.50;99.90;;;;;;5094453;28;20481;-50
2021/04/12 03:41:27;;;;;;;0.50;0.30;;;7.50;99.90;;;;;;5094531;28;20938;-51
2021/04/12 03:44:11;;;;;;;0.50;0.30;;;7.50;99.90;;;;;;5097246;22;20495;-50
2021/04/12 03:46:55;;;;;;;0.57;0.40;;;7.50;99.90;;;;;;5053871;28;20443;-50
2021/04/12 03:49:57;;;;;;;0.60;0.50;;;7.40;99.90;;;;;;5053515;28;20451;-50
2021/04/12 03:52:45;;;;;;;0.67;0.67;;;6.90;99.90;;;;;;5053902;28;21014;-50
2021/04/12 03:55:31;;;;;;;0.70;0.70;;;6.60;99.90;;;;;;5069866;28;20479;-50
2021/04/12 03:58:10;;;;;;;2.10;0.77;;;6.50;99.90;;;;;;5053976;28;20952;-50
2021/04/12 04:01:04;;;;;;;1.10;0.77;;;6.30;99.90;;;;;;5053758;28;20448;-50
2021/04/12 04:03:54;;;;;;;0.80;0.80;;;6.30;99.90;;;;;;5057005;28;20468;-50
2021/04/12 04:10:11;;;;;;;0.90;0.60;;;5.70;99.90;;;;;;5053619;28;20435;-50
2021/04/12 04:13:12;;;;;;;1.57;0.70;;;5.30;99.90;;;;;;5053635;28;20450;-50
2021/04/12 04:16:01;;;;;;;0.50;0.50;;;5.10;99.90;;;;;;5040703;28;20449;-50
2021/04/12 04:18:35;;;;;;;0.70;0.63;;;5.00;99.90;;;;;;5053878;28;20454;-50
2021/04/12 04:28:27;;;;;;;0.60;0.53;;;4.90;99.90;;;;;;5073620;28;20444;-50
2021/04/12 04:31:29;;;;;;;1.10;0.77;;;4.60;99.90;;;;;;5019273;28;20453;-50
2021/04/12 04:34:40;;;;;;;0.60;0.50;;;4.70;99.90;;;;;;5053586;28;20489;-50
2021/04/12 04:37:35;;;;;;;0.60;0.60;;;4.50;99.90;;;;;;5027734;28;20481;-50
2021/04/12 04:40:27;;;;;;;0.60;0.50;;;4.30;99.90;;;;;;5047681;28;20496;-50
2021/04/12 04:43:08;;;;;;;0.50;0.50;;;4.00;99.90;;;;;;5042195;28;20855;-50
2021/04/12 04:45:51;;;;;;;0.80;0.57;;;3.70;99.90;;;;;;5050140;28;20517;-51
2021/04/12 04:48:40;;;;;;;0.67;0.63;;;3.60;99.90;;;;;;5046861;28;20457;-50
2021/04/12 04:51:32;;;;;;;0.77;0.73;;;3.70;99.90;;;;;;5063010;28;20456;-50
2021/04/12 04:54:34;;;;;;;0.80;0.80;;;3.70;99.90;;;;;;5072817;28;20541;-50
2021/04/12 04:57:14;;;;;;;0.70;0.70;;;3.50;99.90;;;;;;5069647;28;20460;-51
2021/04/12 04:59:54;;;;;;;0.80;0.57;;;3.50;99.90;;;;;;5037711;28;20453;-51
2021/04/12 05:02:59;;;;;;;0.60;0.50;;;3.30;99.90;;;;;;5072692;28;20448;-50
2021/04/12 05:05:36;;;;;;;0.60;0.50;;;3.30;99.90;;;;;;5025665;28;20835;-50
2021/04/12 05:08:52;;;;;;;0.60;0.50;;;3.20;99.90;;;;;;5051878;28;20444;-51
2021/04/12 05:11:46;;;;;;;0.90;0.50;;;3.20;99.90;;;;;;5055848;28;20981;-51
2021/04/12 05:14:38;;;;;;;1.20;0.60;;;3.10;99.90;;;;;;5041434;28;20499;-51
2021/04/12 05:17:53;;;;;;;0.70;0.60;;;3.00;99.90;;;;;;5051308;28;20512;-51
2021/04/12 05:20:48;;;;;;;0.70;0.60;;;2.90;99.90;;;;;;5047400;28;21088;-51
2021/04/12 05:23:41;;;;;;;0.80;0.80;;;2.90;99.90;;;;;;5051869;28;20519;-50
2021/04/12 05:26:35;;;;;;;0.70;0.70;;;3.00;99.90;;;;;;5049255;28;20946;-51
2021/04/12 05:29:15;;;;;;;0.80;0.70;;;3.00;99.90;;;;;;5052341;28;20444;-51
2021/04/12 05:32:10;;;;;;;1.10;0.60;;;3.10;99.90;;;;;;5048194;28;20447;-51
2021/04/12 05:35:07;;;;;;;0.90;0.70;;;3.10;99.90;;;;;;5052422;28;20492;-51
2021/04/12 05:38:03;;;;;;;1.30;1.20;;;3.30;99.90;;;;;;5051977;28;20947;-51
2021/04/12 05:40:52;;;;;;;0.90;0.80;;;3.40;99.90;;;;;;5049140;28;20451;-51
2021/04/12 05:43:33;;;;;;;0.90;0.80;;;3.30;99.90;;;;;;5046072;28;20501;-51
2021/04/12 05:46:45;;;;;;;0.70;0.70;;;3.20;99.90;;;;;;5051830;28;20859;-50
2021/04/12 05:49:42;;;;;;;0.60;0.60;;;3.50;99.90;;;;;;4989318;28;20447;-50
2021/04/12 05:52:26;;;;;;;0.70;0.70;;;3.70;99.90;;;;;;5029117;28;20550;-51
2021/04/12 05:55:19;;;;;;;5.37;3.20;;;3.90;99.90;;;;;;5051568;28;20478;-50
2021/04/12 05:57:57;;;;;;;1.10;1.10;;;4.00;99.90;;;;;;5050022;28;20453;-50
2021/04/12 06:00:29;;;;;;;0.80;0.80;;;4.40;99.90;;;;;;5051973;28;20453;-50
2021/04/12 06:03:31;;;;;;;1.07;0.90;;;4.40;99.90;;;;;;5051693;28;20832;-50
2021/04/12 06:06:29;;;;;;;1.00;0.90;;;4.50;99.90;;;;;;5049904;28;20462;-50
2021/04/12 06:09:17;;;;;;;0.90;0.90;;;4.60;99.90;;;;;;5045340;28;20827;-50
2021/04/12 06:12:15;;;;;;;1.10;1.00;;;4.70;99.90;;;;;;5051591;28;20813;-50
2021/04/12 06:15:18;;;;;;;1.23;0.90;;;4.80;99.90;;;;;;5051502;28;20557;-50
2021/04/12 06:18:16;;;;;;;1.10;0.90;;;4.80;99.90;;;;;;5040002;28;20492;-50
2021/04/12 06:21:14;;;;;;;1.23;1.13;;;4.60;99.90;;;;;;5051746;28;20449;-50
2021/04/12 06:24:10;;;;;;;2.00;0.93;;;4.40;99.90;;;;;;5041466;28;20465;-51
2021/04/12 06:26:59;;;;;;;0.90;0.90;;;4.50;99.90;;;;;;5047125;28;20455;-50
2021/04/12 06:29:50;;;;;;;0.90;0.90;;;4.60;99.90;;;;;;5051316;28;20481;-51
2021/04/12 06:32:47;;;;;;;0.80;0.80;;;4.60;99.90;;;;;;5051268;28;20446;-50
2021/04/12 06:35:40;;;;;;;1.03;0.93;;;4.50;99.90;;;;;;5049472;28;20486;-50
2021/04/12 06:38:35;;;;;;;1.37;0.90;;;4.60;99.90;;;;;;5039295;28;20940;-51
2021/04/12 06:41:51;;;;;;;1.00;0.90;;;4.60;99.90;;;;;;5036051;28;20450;-50
2021/04/12 06:44:45;;;;;;;0.87;0.87;;;4.50;99.90;;;;;;5031321;28;20474;-51
2021/04/12 06:47:48;;;;;;;1.63;1.20;;;4.10;99.90;;;;;;5049760;28;20945;-50
2021/04/12 06:50:55;;;;;;;1.20;1.10;;;3.80;99.90;;;;;;5015439;28;20438;-51
2021/04/12 06:54:03;;;;;;;1.90;1.40;;;3.80;99.90;;;;;;5051110;28;20466;-50
2021/04/12 06:56:59;;;;;;;3.17;1.70;;;3.80;99.90;;;;;;5019788;28;20458;-50
2021/04/12 07:00:11;;;;;;;0.90;0.90;;;4.00;99.90;;;;;;5044909;28;20474;-50
2021/04/12 07:03:12;;;;;;;1.90;1.07;;;4.00;99.90;;;;;;5050775;28;20978;-50
2021/04/12 07:06:26;;;;;;;2.33;1.10;;;4.00;99.90;;;;;;5048026;28;20444;-50
2021/04/12 07:09:25;;;;;;;1.40;0.90;;;4.10;99.90;;;;;;5045627;28;20473;-51
2021/04/12 07:12:13;;;;;;;1.10;1.00;;;4.10;99.90;;;;;;5007309;28;20455;-51
2021/04/12 07:15:22;;;;;;;0.97;0.87;;;4.10;99.90;;;;;;5044556;28;20521;-51
2021/04/12 07:18:41;;;;;;;0.77;0.70;;;3.90;99.90;;;;;;5048499;28;20516;-50
2021/04/12 07:21:39;;;;;;;1.00;0.80;;;4.20;99.90;;;;;;5044090;28;20451;-50
2021/04/12 07:24:47;;;;;;;1.07;0.70;;;4.20;99.90;;;;;;5016268;28;20463;-51
2021/04/12 07:28:01;;;;;;;0.63;0.60;;;4.50;99.90;;;;;;5054035;28;20544;-50
2021/04/12 07:31:07;;;;;;;0.90;0.70;;;4.40;99.90;;;;;;4971835;28;20458;-50
2021/04/12 07:33:53;;;;;;;0.90;0.70;;;4.50;99.90;;;;;;5048849;28;20554;-51
2021/04/12 07:36:56;;;;;;;1.00;0.77;;;4.30;99.90;;;;;;5054917;28;20453;-50
2021/04/12 07:40:35;;;;;;;0.90;0.90;;;4.30;99.90;;;;;;5013857;28;20476;-51
2021/04/12 07:43:35;;;;;;;0.87;0.80;;;4.20;99.90;;;;;;5048524;28;20473;-49
2021/04/12 07:46:43;;;;;;;1.37;1.27;;;4.10;99.90;;;;;;5053771;28;21014;-51
2021/04/12 07:49:46;;;;;;;1.23;1.07;;;4.20;99.90;;;;;;5031306;28;20454;-49
2021/04/12 07:52:54;;;;;;;1.10;1.00;;;4.00;99.90;;;;;;5053800;28;20550;-50
2021/04/12 07:55:50;;;;;;;1.83;1.40;;;3.90;99.90;;;;;;5053916;28;20482;-50
2021/04/12 07:58:56;;;;;;;1.47;1.30;;;3.70;99.90;;;;;;5053336;28;20517;-53
2021/04/12 08:02:14;;;;;;;1.73;1.63;;;3.70;99.90;;;;;;5053664;28;20478;-50
2021/04/12 08:05:21;;;;;;;1.20;1.10;;;3.90;99.90;;;;;;5047819;28;20475;-51
2021/04/12 08:08:21;;;;;;;1.30;1.20;;;3.80;99.90;;;;;;5049701;28;20450;-50
2021/04/12 08:11:43;;;;;;;1.17;1.10;;;4.00;99.90;;;;;;5053968;28;20450;-50
2021/04/12 08:14:55;;;;;;;1.67;1.50;;;3.90;99.90;;;;;;5053841;28;21041;-49
2021/04/12 08:18:06;;;;;;;1.50;1.20;;;4.00;99.90;;;;;;5017980;28;20462;-50
2021/04/12 08:21:11;;;;;;;1.30;1.20;;;3.80;99.90;;;;;;4985893;28;20450;-50
2021/04/12 08:24:32;;;;;;;1.97;1.37;;;3.90;99.90;;;;;;4957926;28;20481;-50
2021/04/12 08:27:45;;;;;;;2.42;1.80;;;3.80;99.90;;;;;;5052906;28;20883;-50
2021/04/12 08:30:46;;;;;;;1.97;1.70;;;4.00;99.90;;;;;;5053459;28;20229;-49
2021/04/12 08:33:55;;;;;;;1.40;1.30;;;3.70;99.90;;;;;;5033421;28;20474;-49
2021/04/12 08:37:04;;;;;;;1.60;1.50;;;3.90;99.90;;;;;;5031919;28;20811;-50
2021/04/12 08:40:12;;;;;;;2.10;1.60;;;4.00;99.90;;;;;;5057396;28;20471;-50
2021/04/12 08:43:01;;;;;;;1.53;1.40;;;4.10;99.90;;;;;;5058486;28;20508;-49
2021/04/12 08:46:02;;;;;;;1.83;1.63;;;4.10;99.90;;;;;;5053104;28;20497;-49
2021/04/12 08:48:55;;;;;;;3.17;2.00;;;3.90;99.90;;;;;;5020346;28;20537;-51
2021/04/12 08:52:05;;;;;;;2.20;1.83;;;4.00;99.90;;;;;;5060241;28;20452;-49
2021/04/12 08:55:15;;;;;;;2.47;1.70;;;4.10;99.90;;;;;;5052450;28;20478;-49
2021/04/12 08:58:21;;;;;;;5.90;1.93;;;4.10;99.90;;;;;;5052579;28;20449;-50
2021/04/12 09:01:39;;;;;;;2.07;1.53;;;4.10;99.90;;;;;;5068686;28;20493;-50
2021/04/12 09:04:53;;;;;;;5.57;3.40;;;4.10;99.90;;;;;;5035272;28;20465;-50
2021/04/12 09:07:54;;;;;;;6.07;3.60;;;4.00;99.90;;;;;;5052721;28;20453;-50
2021/04/12 09:10:38;;;;;;;3.27;2.40;;;4.00;99.90;;;;;;5067755;28;20506;-50
2021/04/12 09:13:45;;;;;;;1.90;1.80;;;3.80;99.90;;;;;;5069485;28;20532;-49
2021/04/12 09:16:27;;;;;;;2.23;2.03;;;4.00;99.90;;;;;;5043011;28;20895;-50
2021/04/12 09:19:43;;;;;;;2.40;1.87;;;4.10;99.90;;;;;;5051235;28;20475;-50
2021/04/12 09:22:31;;;;;;;3.40;2.30;;;4.20;99.90;;;;;;5046188;28;20512;-48
2021/04/12 09:25:36;;;;;;;2.17;1.97;;;4.20;99.90;;;;;;5049399;28;20439;-50
2021/04/12 09:28:28;;;;;;;2.87;1.87;;;4.20;99.90;;;;;;5038950;28;20462;-50
2021/04/12 09:31:33;;;;;;;2.00;1.70;;;4.30;99.90;;;;;;5071223;28;20450;-50
2021/04/12 09:34:43;;;;;;;3.20;2.60;;;4.00;99.90;;;;;;5015287;28;20499;-50
2021/04/12 09:37:58;;;;;;;3.43;2.60;;;4.00;99.90;;;;;;5051705;28;20558;-50
2021/04/12 09:40:56;;;;;;;2.53;2.23;;;4.20;99.90;;;;;;5054055;28;20865;-49
2021/04/12 09:44:07;;;;;;;2.37;2.10;;;4.20;99.90;;;;;;5085620;22;20493;-49
2021/04/12 09:47:06;;;;;;;4.17;2.80;;;4.10;99.90;;;;;;5084342;28;20452;-49
2021/04/12 09:50:09;;;;;;;2.00;1.87;;;4.10;99.90;;;;;;5091791;28;20516;-49
2021/04/12 09:52:53;;;;;;;2.53;2.33;;;4.20;99.90;;;;;;5092403;28;20952;-49
2021/04/12 09:55:50;;;;;;;1.90;1.77;;;4.00;99.90;;;;;;5071819;28;20997;-49
2021/04/12 09:59:04;;;;;;;2.63;2.20;;;4.10;99.90;;;;;;5072109;28;20928;-49
2021/04/12 10:02:04;;;;;;;3.23;2.27;;;4.10;99.90;;;;;;5051068;28;20444;-49
2021/04/12 10:05:05;;;;;;;3.03;2.10;;;4.30;99.90;;;;;;5072065;28;20488;-49
2021/04/12 10:07:58;;;;;;;2.77;2.10;;;4.00;99.90;;;;;;5071789;28;20453;-49
2021/04/12 10:10:28;;;;;;;3.40;2.20;;;3.90;99.90;;;;;;5068098;28;20476;-49
2021/04/12 10:13:13;;;;;;;2.17;1.97;;;4.00;99.90;;;;;;5071977;28;20783;-49
2021/04/12 10:15:53;;;;;;;2.67;2.00;;;4.00;99.90;;;;;;5071312;28;20483;-49
2021/04/12 10:18:30;;;;;;;2.93;2.53;;;4.30;99.90;;;;;;5071177;28;21035;-49
2021/04/12 10:21:17;;;;;;;2.30;2.10;;;4.20;99.90;;;;;;5071748;28;20872;-49
2021/04/12 10:23:46;;;;;;;3.17;2.37;;;4.10;99.90;;;;;;5071526;28;20470;-49
2021/04/12 10:26:16;;;;;;;2.83;2.40;;;4.20;99.90;;;;;;5071393;28;20451;-50
2021/04/12 10:28:48;;;;;;;3.37;2.47;;;4.30;99.90;;;;;;5071074;28;20457;-50
2021/04/12 10:31:26;;;;;;;5.33;2.20;;;4.40;99.90;;;;;;5071526;28;20453;-49
2021/04/12 10:34:12;;;;;;;2.57;2.10;;;4.70;99.90;;;;;;5070149;28;20490;-50
2021/04/12 10:36:51;;;;;;;2.93;2.20;;;4.20;99.90;;;;;;5070913;28;20454;-49
2021/04/12 10:39:27;;;;;;;4.27;3.20;;;4.10;99.90;;;;;;5070647;28;20457;-49
2021/04/12 10:41:59;;;;;;;4.47;3.07;;;4.00;99.90;;;;;;5070191;28;20450;-49
2021/04/12 10:44:33;;;;;;;2.60;2.40;;;4.10;99.90;;;;;;5070806;28;20525;-49
2021/04/12 10:47:07;;;;;;;3.50;2.73;;;4.20;99.90;;;;;;5071327;28;20975;-49
2021/04/12 10:49:54;;;;;;;3.03;2.67;;;4.20;99.90;;;;;;5070838;28;20452;-49
2021/04/12 10:52:28;;;;;;;3.70;2.33;;;4.30;99.90;;;;;;5070913;28;20458;-49
2021/04/12 10:55:16;;;;;;;2.90;2.20;;;4.30;99.90;;;;;;5071139;28;20858;-49
2021/04/12 10:57:48;;;;;;;2.73;2.40;;;4.10;99.90;;;;;;5071294;28;20806;-49
2021/04/12 11:00:43;;;;;;;2.57;2.30;;;4.10;99.90;;;;;;5074951;28;20818;-49
2021/04/12 11:03:41;;;;;;;3.67;2.57;;;4.00;99.90;;;;;;5074523;28;20465;-49
2021/04/12 11:06:20;;;;;;;3.93;2.67;;;4.00;99.90;;;;;;5061353;28;20502;-49
2021/04/12 11:08:54;;;;;;;3.40;2.77;;;4.20;99.90;;;;;;5074914;28;20503;-49
2021/04/12 11:11:27;;;;;;;3.70;2.73;;;4.20;99.90;;;;;;5075318;28;20453;-48
2021/04/12 11:13:59;;;;;;;3.60;2.77;;;4.10;99.90;;;;;;5074510;28;20643;-49
2021/04/12 11:16:34;;;;;;;2.90;2.60;;;4.00;99.90;;;;;;5074716;28;20507;-49
2021/04/12 11:19:20;;;;;;;3.00;2.60;;;3.90;99.90;;;;;;5067583;28;20623;-49
2021/04/12 11:22:01;;;;;;;4.63;3.27;;;3.60;99.90;;;;;;5054963;28;20450;-49
2021/04/12 11:24:36;;;;;;;3.63;2.93;;;3.70;99.90;;;;;;5054767;28;20469;-49
2021/04/12 11:28:02;;;;;;;4.40;3.17;;;3.80;99.90;;;;;;5065646;28;20976;-49
2021/04/12 11:30:40;;;;;;;4.37;3.20;;;3.80;99.90;;;;;;5074552;28;20443;-49
2021/04/12 11:33:32;;;;;;;4.23;3.10;;;3.60;99.90;;;;;;5074394;28;20478;-49
2021/04/12 11:36:17;;;;;;;5.17;3.10;;;3.70;99.90;;;;;;5066315;28;20745;-49
2021/04/12 11:38:47;;;;;;;3.80;3.03;;;3.70;99.90;;;;;;5054446;28;20450;-49
2021/04/12 11:41:20;;;;;;;3.90;2.97;;;3.70;99.90;;;;;;5068858;28;20461;-49
2021/04/12 11:43:50;;;;;;;5.60;4.00;;;3.60;99.90;;;;;;5074008;28;20531;-49
2021/04/12 11:46:29;;;;;;;5.13;3.03;;;3.60;99.90;;;;;;5074246;28;20461;-49
2021/04/12 11:49:04;;;;;;;3.73;2.80;;;3.50;99.90;;;;;;5074399;28;20457;-48
2021/04/12 11:51:41;;;;;;;4.37;3.37;;;3.50;99.90;;;;;;5074146;28;20443;-49
2021/04/12 11:54:11;;;;;;;3.60;3.00;;;3.40;99.90;;;;;;5073964;28;20531;-50
2021/04/12 11:56:48;;;;;;;5.20;3.57;;;3.60;99.90;;;;;;5073613;28;20489;-49
2021/04/12 11:59:33;;;;;;;4.07;3.20;;;3.60;99.90;;;;;;5073779;28;20869;-50
2021/04/12 12:02:11;;;;;;;3.20;2.50;;;3.90;99.90;;;;;;5074049;28;20568;-48
2021/04/12 12:04:45;;;;;;;3.80;2.90;;;3.70;99.90;;;;;;5073733;28;20460;-49
2021/04/12 12:07:32;;;;;;;3.57;2.77;;;3.80;99.90;;;;;;5074383;28;20507;-49
2021/04/12 12:10:10;;;;;;;3.73;2.40;;;3.70;99.90;;;;;;5073399;28;20445;-49
2021/04/12 12:12:48;;;;;;;4.60;2.67;;;3.90;99.90;;;;;;5073503;28;20453;-49
2021/04/12 12:15:22;;;;;;;2.93;2.43;;;3.90;99.90;;;;;;5072465;28;20485;-49
2021/04/12 12:18:00;;;;;;;6.60;3.30;;;3.60;99.90;;;;;;5053593;28;20455;-49
2021/04/12 12:20:35;;;;;;;4.27;2.93;;;3.30;99.90;;;;;;5073904;28;20464;-49
2021/04/12 12:23:14;;;;;;;7.00;2.87;;;3.50;99.90;;;;;;5073730;28;20474;-50
2021/04/12 12:25:44;;;;;;;4.00;3.10;;;3.60;99.90;;;;;;5080425;28;21104;-50
2021/04/12 12:28:30;;;;;;;3.50;2.77;;;3.80;99.90;;;;;;5073647;28;20457;-49
2021/04/12 12:31:31;;;;;;;4.47;2.93;;;4.10;99.90;;;;;;5073450;28;20453;-50
2021/04/12 12:34:15;;;;;;;3.83;2.50;;;3.90;99.90;;;;;;5073955;28;20940;-49
2021/04/12 12:36:51;;;;;;;3.00;2.37;;;3.80;99.90;;;;;;5074541;28;20445;-50
2021/04/12 12:39:36;;;;;;;3.93;2.80;;;3.80;99.90;;;;;;5073248;28;20501;-50
2021/04/12 12:42:07;;;;;;;4.43;2.80;;;3.60;99.90;;;;;;5071695;28;20533;-49
2021/04/12 12:44:36;;;;;;;3.23;2.67;;;3.40;99.90;;;;;;5074373;28;20489;-49
2021/04/12 12:47:11;;;;;;;7.20;4.30;;;3.60;99.90;;;;;;5074357;28;20461;-49
2021/04/12 12:49:43;;;;;;;5.20;3.53;;;3.90;99.90;;;;;;5075661;28;20958;-50
2021/04/12 12:52:14;;;;;;;3.80;3.10;;;4.10;99.90;;;;;;5073100;28;20446;-50
2021/04/12 12:54:46;;;;;;;4.13;3.10;;;4.10;99.90;;;;;;5072676;28;20497;-49
2021/04/12 12:57:21;;;;;;;4.77;3.27;;;3.80;99.90;;;;;;5072475;28;20952;-49
2021/04/12 12:59:51;;;;;;;2.50;2.20;;;3.80;99.90;;;;;;5071974;28;20453;-50
2021/04/12 13:02:31;;;;;;;3.30;3.00;;;3.90;99.90;;;;;;5072127;28;20456;-50
2021/04/12 13:05:03;;;;;;;3.20;2.87;;;4.00;99.90;;;;;;5071658;28;20464;-49
2021/04/12 13:07:32;;;;;;;3.40;2.60;;;3.40;99.90;;;;;;5071806;28;20509;-49
2021/04/12 13:10:02;;;;;;;4.67;3.10;;;3.60;99.90;;;;;;5072493;28;20443;-50
2021/04/12 13:12:32;;;;;;;2.70;2.50;;;3.60;99.90;;;;;;5072420;28;20460;-49
2021/04/12 13:15:18;;;;;;;3.37;2.70;;;3.70;99.90;;;;;;5052211;28;20494;-49
2021/04/12 13:17:45;;;;;;;3.27;2.50;;;3.80;99.90;;;;;;5052439;28;20864;-50
2021/04/12 13:20:16;;;;;;;3.67;3.20;;;3.90;99.90;;;;;;5052387;28;20455;-50
2021/04/12 13:22:46;;;;;;;4.77;3.30;;;4.20;99.90;;;;;;5051801;28;20462;-50
2021/04/12 13:25:29;;;;;;;3.23;2.70;;;4.30;99.90;;;;;;5058709;28;20453;-50
2021/04/12 13:28:00;;;;;;;3.17;2.67;;;4.00;99.90;;;;;;5060429;28;20445;-50
2021/04/12 13:30:32;;;;;;;3.80;2.77;;;3.80;99.90;;;;;;5072202;28;20446;-49
2021/04/12 13:33:01;;;;;;;3.90;2.87;;;3.90;99.90;;;;;;5071968;28;20969;-49
2021/04/12 13:35:32;;;;;;;3.40;2.83;;;3.70;99.90;;;;;;5072110;28;20893;-49
2021/04/12 13:38:08;;;;;;;3.23;2.87;;;3.50;99.90;;;;;;5071527;28;20668;-49
2021/04/12 13:40:41;;;;;;;3.77;2.97;;;3.60;99.90;;;;;;5072151;28;20446;-50
2021/04/12 13:43:09;;;;;;;6.27;3.27;;;3.60;99.90;;;;;;5071835;28;20487;-49
2021/04/12 13:45:40;;;;;;;5.40;3.57;;;3.60;99.90;;;;;;5071843;28;20452;-49
2021/04/12 13:48:10;;;;;;;6.10;3.70;;;3.40;99.90;;;;;;5071726;28;20441;-49
2021/04/12 13:50:48;;;;;;;5.77;3.50;;;3.30;99.90;;;;;;5058468;28;20458;-49
2021/04/12 13:53:18;;;;;;;4.90;3.70;;;3.40;99.90;;;;;;5071571;28;20478;-49
2021/04/12 13:56:06;;;;;;;4.63;3.13;;;3.40;99.90;;;;;;5071650;28;20485;-49
2021/04/12 13:58:36;;;;;;;4.60;3.20;;;3.40;99.90;;;;;;5071550;28;20777;-49
2021/04/12 14:01:07;;;;;;;4.00;2.93;;;3.50;99.90;;;;;;5071606;28;20453;-49
2021/04/12 14:03:38;;;;;;;4.43;3.30;;;3.30;99.90;;;;;;5071160;28;20477;-49
2021/04/12 14:06:08;;;;;;;3.67;2.97;;;3.20;99.90;;;;;;5071895;28;20442;-49
2021/04/12 14:08:45;;;;;;;4.77;3.30;;;3.20;99.90;;;;;;5071404;28;20819;-49
2021/04/12 14:11:22;;;;;;;5.40;3.63;;;3.20;99.90;;;;;;5071456;28;20452;-49
2021/04/12 14:13:53;;;;;;;6.70;3.77;;;2.70;99.90;;;;;;5071257;28;20987;-49
2021/04/12 14:16:24;;;;;;;9.10;4.93;;;2.70;99.90;;;;;;5071179;28;20937;-49
2021/04/12 14:18:59;;;;;;;5.93;3.77;;;2.30;99.90;;;;;;5071421;28;20466;-49
2021/04/12 14:21:29;;;;;;;8.47;4.60;;;2.60;99.90;;;;;;5071163;28;20532;-49
2021/04/12 14:24:05;;;;;;;8.30;5.03;;;2.50;99.90;;;;;;5072781;28;20969;-51
2021/04/12 14:26:35;;;;;;;7.10;4.50;;;2.40;99.90;;;;;;5071680;28;20832;-49
2021/04/12 14:29:06;;;;;;;7.27;4.77;;;2.50;99.90;;;;;;5071022;28;20464;-49
2021/04/12 14:31:36;;;;;;;9.70;5.20;;;2.50;99.90;;;;;;5071008;28;20470;-48
2021/04/12 14:34:08;;;;;;;9.00;5.40;;;2.50;99.90;;;;;;5070953;28;21026;-49
2021/04/12 14:36:39;;;;;;;8.13;5.63;;;2.40;99.90;;;;;;5071318;28;20807;-50
2021/04/12 14:39:10;;;;;;;10.27;5.60;;;2.50;99.90;;;;;;5071442;28;20452;-49
2021/04/12 14:41:42;;;;;;;9.67;5.83;;;2.60;99.90;;;;;;5071302;28;20452;-49
2021/04/12 14:44:13;;;;;;;9.23;5.30;;;2.70;99.90;;;;;;5069956;28;20487;-49
2021/04/12 14:46:47;;;;;;;8.67;4.50;;;2.90;99.90;;;;;;5071298;28;20448;-49
2021/04/12 14:49:15;;;;;;;9.70;4.93;;;2.90;99.90;;;;;;5073007;28;20448;-49
2021/04/12 14:51:53;;;;;;;8.17;4.07;;;2.90;99.90;;;;;;5071909;28;20462;-49
2021/04/12 14:54:24;;;;;;;6.27;4.20;;;2.80;99.90;;;;;;5071232;28;20487;-49
2021/04/12 14:57:00;;;;;;;7.60;4.33;;;2.80;99.90;;;;;;5071846;28;20481;-49
2021/04/12 14:59:34;;;;;;;6.80;4.10;;;2.80;99.90;;;;;;5071291;28;20457;-50
2021/04/12 15:02:03;;;;;;;8.07;4.43;;;2.80;99.90;;;;;;5071614;28;20442;-49